Date,TemperatureHighF,TemperatureAvgF,TemperatureLowF,DewpointHighF,DewpointAvgF,DewpointLowF,HumidityHigh,HumidityAvg,HumidityLow,PressureMaxIn,PressureMinIn,WindSpeedMaxMPH,WindSpeedAvgMPH,GustSpeedMaxMPH,PrecipitationSumIn
2013-1-1,20,13,9,12,9,6,93,83,60,30.28,30.09,5,3,17,0.00
2013-1-2,29,20,10,16,12,7,91,70,38,30.29,30.19,6,4,14,0.00
2013-1-3,46,21,14,16,12,5,87,73,20,30.27,30.16,6,3,8,0.00
2013-1-4,46,23,16,26,17,12,91,79,37,30.29,30.22,5,2,5,0.00
2013-1-5,41,30,22,31,26,17,104,84,64,30.26,30.02,5,2,13,0.00
2013-1-6,35,26,21,22,20,10,95,78,40,30.12,29.99,4,2,11,0.00
2013-1-7,46,32,19,32,25,18,95,77,53,30.26,30.10,5,2,13,0.00
2013-1-8,56,38,28,31,27,20,93,71,28,30.31,30.24,4,2,14,0.00
2013-1-9,41,34,18,28,23,16,98,68,46,30.26,29.72,6,3,18,0.02
2013-1-10,22,15,10,18,12,7,94,88,74,29.90,29.78,5,2,15,0.02
2013-1-11,19,13,6,14,10,2,93,86,71,29.97,29.89,5,1,11,0.00
2013-1-12,26,9,-2,10,1,-6,85,72,33,30.00,29.93,5,2,15,0.01
2013-1-13,23,7,-4,0,-3,-8,86,64,28,30.02,29.96,7,4,19,0.00
2013-1-14,29,18,3,21,5,-5,81,59,35,30.30,30.01,7,4,19,0.00
2013-1-15,46,33,24,22,17,13,84,54,26,30.53,30.29,6,4,17,0.00
2013-1-16,48,34,24,14,10,5,61,38,18,30.55,30.43,5,4,15,0.00
2013-1-17,49,32,24,14,8,1,59,38,20,30.45,30.34,6,4,13,0.00
2013-1-18,54,31,20,17,8,1,56,40,12,30.36,30.29,6,3,10,0.00
2013-1-19,54,34,22,17,6,-2,60,34,11,30.39,30.31,5,3,10,0.00
2013-1-20,49,32,19,14,6,2,54,36,15,30.37,30.30,5,2,11,0.00
2013-1-21,57,37,24,23,9,-1,68,37,11,30.34,30.27,6,3,9,0.00
2013-1-22,54,36,25,19,12,3,62,42,12,30.31,30.18,5,3,11,0.00
2013-1-23,46,36,27,30,14,3,96,44,20,30.21,30.12,5,3,18,0.00
2013-1-24,44,34,31,39,34,30,100,88,82,30.22,30.15,3,0,6,0.01
2013-1-25,40,40,37,39,39,37,99,90,94,30.23,30.14,3,2,8,0.00
2013-1-26,38,32,25,35,28,23,102,78,68,30.00,29.89,5,3,16,0.00
2013-1-27,29,21,12,23,15,9,95,77,48,29.99,29.86,4,2,11,0.01
2013-1-28,29,21,10,19,13,7,90,71,50,30.15,29.97,4,2,14,0.01
2013-1-29,44,33,20,27,24,17,90,70,47,30.36,30.15,6,4,18,0.00
2013-1-30,49,37,28,27,22,10,88,61,22,30.41,30.36,4,2,10,0.00
2013-1-31,55,38,24,25,17,3,82,51,13,30.37,30.30,5,3,12,0.00
2013-2-1,46,25,22,16,12,7,68,60,20,30.33,30.29,5,3,5,0.00
2013-2-3,33,31,28,21,18,15,70,59,46,30.25,30.23,3,2,11,0.00
2013-2-4,53,38,23,25,14,5,75,45,15,30.25,30.16,4,3,9,0.00
2013-2-5,44,32,22,27,21,15,92,64,36,30.16,30.00,6,3,17,0.00
2013-2-6,46,28,16,22,10,-8,88,57,11,30.13,30.06,4,2,9,0.00
2013-2-7,28,23,18,24,19,12,96,83,56,30.07,29.84,4,2,13,0.01
2013-2-8,27,18,8,17,11,5,92,75,55,29.85,29.76,7,2,19,0.01
2013-2-9,32,21,13,15,10,6,88,66,34,30.01,29.82,5,3,14,0.00
2013-2-10,31,24,14,17,14,11,94,67,47,30.01,29.98,6,3,19,0.00
2013-2-11,38,26,18,15,11,6,75,54,27,30.23,30.00,6,3,19,0.00
2013-2-12,47,33,21,20,15,9,74,50,24,30.33,30.22,4,2,10,0.00
2013-2-13,46,34,24,22,18,15,76,55,30,30.34,30.30,5,2,15,0.00
2013-2-14,47,36,30,25,23,20,77,59,36,30.38,30.28,8,4,21,0.00
2013-2-15,56,37,26,24,19,10,80,52,16,30.42,30.36,4,3,12,0.00
2013-2-16,51,34,23,21,12,1,78,47,14,30.41,30.12,5,3,12,0.00
2013-2-17,47,32,23,24,19,11,88,64,25,30.12,30.01,4,2,10,0.00
2013-2-18,40,28,22,24,20,13,91,74,32,30.04,29.81,5,3,15,0.00
2013-2-19,26,20,13,24,18,10,97,92,80,29.81,29.54,6,3,19,0.03
2013-2-20,35,23,17,23,17,8,95,80,35,29.93,29.60,5,3,14,0.01
2013-2-21,36,23,14,20,13,4,96,70,26,30.10,29.89,6,2,16,0.00
2013-2-22,45,28,14,26,18,5,92,70,21,30.18,30.09,5,2,13,0.00
2013-2-23,32,25,18,26,15,4,96,69,32,30.13,29.96,7,4,29,0.01
2013-2-24,39,25,16,12,7,-2,78,51,17,30.22,30.06,6,4,17,0.00
2013-2-25,41,28,18,23,15,10,86,60,35,30.22,30.13,6,3,16,0.00
2013-2-26,39,26,14,14,4,-6,81,44,17,30.24,30.14,5,3,15,0.00
2013-2-27,46,31,16,19,10,3,72,45,19,30.39,30.25,5,3,12,0.00
2013-2-28,50,36,24,32,25,13,94,66,40,30.53,30.37,4,2,10,0.00
2013-3-1,59,39,27,29,24,10,94,66,15,30.53,30.42,4,3,11,0.00
2013-3-2,52,40,29,28,24,18,90,56,28,30.45,30.17,5,3,17,0.00
2013-3-3,38,33,31,33,32,26,99,94,68,30.17,30.05,4,2,12,0.01
2013-3-4,48,34,23,34,26,21,98,79,37,30.13,30.07,4,2,11,0.01
2013-3-5,39,34,30,32,28,25,92,81,61,30.08,29.80,6,4,22,0.00
2013-3-6,28,24,20,27,22,18,98,95,91,29.93,29.71,8,4,22,0.05
2013-3-7,30,24,18,26,22,17,96,93,82,29.91,29.82,3,1,7,0.01
2013-3-8,37,27,20,27,22,19,97,83,52,29.94,29.76,4,2,12,0.01
2013-3-9,42,32,18,22,12,3,94,51,20,30.32,30.00,5,3,13,0.01
2013-3-10,52,45,36,21,11,4,52,27,14,30.38,30.34,5,3,11,0.00
2013-3-11,59,41,27,31,16,1,81,40,14,30.37,30.26,5,2,11,0.00
2013-3-12,63,44,27,36,23,10,82,51,14,30.35,30.26,5,3,9,0.00
2013-3-13,62,45,29,32,24,15,90,52,18,30.38,30.33,5,3,13,0.00
2013-3-14,58,52,33,30,24,17,80,36,21,30.35,30.31,5,3,14,0.00
2013-3-15,56,42,30,28,21,11,83,52,17,30.32,30.20,5,4,14,0.00
2013-3-16,53,37,26,27,18,5,80,50,19,30.22,30.11,6,3,16,0.00
2013-3-17,50,34,23,30,20,8,89,64,19,30.15,30.09,5,3,12,0.00
2013-3-18,49,35,24,25,18,9,88,53,21,30.17,30.11,5,2,13,0.00
2013-3-19,46,37,31,34,29,18,99,75,46,30.19,30.12,5,2,13,0.01
2013-3-20,34,32,30,34,32,30,100,89,94,30.12,30.06,7,2,19,0.07
2013-3-21,44,33,26,32,29,25,104,69,49,30.08,30.04,6,2,21,0.01
2013-3-22,43,30,20,26,5,-10,98,43,10,30.10,30.01,5,2,13,0.00
2013-3-23,49,31,18,16,8,-6,66,44,11,30.13,30.08,4,2,13,0.00
2013-3-24,52,36,24,30,22,20,84,63,32,30.15,30.08,5,2,14,0.00
2013-3-25,53,40,25,28,20,10,81,49,19,30.09,30.00,5,3,15,0.00
2013-3-26,43,37,32,33,30,25,93,76,62,30.03,29.96,5,3,17,0.00
2013-3-27,47,38,30,34,32,29,96,79,52,30.08,29.99,5,2,14,0.00
2013-3-28,47,38,32,36,33,30,99,83,53,30.14,30.06,5,3,13,0.00
2013-3-29,55,42,28,37,30,23,102,56,29,30.26,30.19,4,2,11,0.01
2013-3-30,59,42,32,39,30,-100,94,70,27,30.26,30.10,4,2,11,0.00
2013-3-31,38,35,32,37,34,32,101,78,82,30.12,30.07,4,2,13,0.02
2013-4-1,40,34,30,34,32,30,100,75,77,30.20,30.06,4,2,11,0.01
2013-4-2,53,38,27,38,30,26,102,77,39,30.22,30.17,4,2,11,0.01
2013-4-3,49,42,32,36,34,31,97,76,51,30.23,30.18,3,2,5,0.00
2013-4-4,40,37,34,38,35,30,100,91,66,30.18,30.07,6,3,19,0.02
2013-4-5,44,37,31,34,30,27,100,78,53,30.17,30.12,6,3,17,0.01
2013-4-6,44,36,32,34,32,29,91,83,61,30.18,30.14,5,3,13,0.00
2013-4-7,44,35,29,33,30,26,99,73,61,30.16,29.71,7,4,22,0.01
2013-4-8,36,29,24,29,19,14,100,69,43,29.99,29.66,7,4,20,0.01
2013-4-9,45,34,24,18,14,7,70,47,21,30.24,29.97,7,5,21,0.00
2013-4-10,60,45,36,33,24,16,76,45,22,30.35,30.16,7,3,16,0.00
2013-4-11,56,45,36,39,30,20,93,61,25,30.16,30.01,4,2,14,0.00
2013-4-12,59,45,30,35,25,17,75,49,20,30.06,30.01,4,2,12,0.00
2013-4-13,51,45,34,33,27,20,71,51,35,30.01,29.93,7,3,19,0.00
2013-4-14,47,37,29,31,24,12,87,61,30,29.98,29.76,7,4,19,0.00
2013-4-15,34,29,24,32,22,14,103,65,46,29.80,29.73,6,4,19,0.01
2013-4-16,32,26,21,22,14,6,91,63,33,30.10,29.80,6,3,16,0.00
2013-4-17,39,28,18,13,8,2,64,45,26,30.28,30.08,6,3,19,0.00
2013-4-18,54,38,28,24,14,8,69,39,23,30.38,30.25,5,3,13,0.00
2013-4-19,54,42,29,32,26,21,82,55,31,30.37,30.25,6,3,16,0.00
2013-4-20,61,47,29,34,24,4,92,51,10,30.25,30.18,4,2,11,0.00
2013-4-21,63,50,30,37,29,20,83,51,20,30.25,30.19,5,3,13,0.00
2013-4-22,63,48,33,32,23,13,89,46,14,30.23,30.12,4,3,14,0.00
2013-4-23,62,43,30,30,15,7,74,35,14,30.19,30.08,5,4,15,0.00
2013-4-24,54,43,33,28,11,6,74,30,14,30.13,30.06,5,3,16,0.00
2013-4-25,59,44,30,31,20,9,75,42,18,30.27,30.09,5,3,13,0.00
2013-4-26,65,50,34,36,28,16,80,49,16,30.43,30.27,4,2,11,0.00
2013-4-27,66,51,36,36,29,24,80,50,21,30.43,30.35,5,3,15,0.00
2013-4-28,67,52,33,42,26,10,80,41,13,30.34,30.20,5,3,12,0.00
2013-4-29,66,52,38,38,34,29,89,57,26,30.21,30.03,5,3,15,0.00
2013-4-30,63,48,36,35,20,-3,91,41,10,30.17,29.97,5,3,14,0.00
2013-5-1,56,43,32,6,1,-3,25,17,11,30.45,30.14,8,5,20,0.00
2013-5-2,67,50,38,35,16,0,69,27,14,30.46,30.38,5,3,13,0.00
2013-5-3,66,48,36,33,26,11,77,50,15,30.38,30.14,5,2,11,0.00
2013-5-4,57,46,36,35,22,11,91,43,19,30.15,29.84,5,3,14,0.01
2013-5-5,52,44,38,40,34,28,95,68,44,29.91,29.81,4,2,13,0.01
2013-5-6,39,37,32,37,36,32,100,94,90,29.98,29.92,3,2,9,0.02
2013-5-7,38,38,37,38,38,36,103,68,95,30.08,30.06,4,2,8,0.01
2013-5-8,47,43,38,44,41,38,103,77,79,30.23,30.10,2,1,8,0.01
2013-5-9,60,52,38,46,40,33,101,62,35,30.33,30.22,4,2,12,0.00
2013-5-10,66,58,43,46,38,-100,82,51,29,30.43,30.37,4,2,14,0.00
2013-5-11,70,54,40,43,35,-100,89,57,21,30.44,30.39,5,2,12,0.00
2013-5-12,68,55,41,42,34,29,81,50,24,30.44,30.36,6,3,17,0.00
2013-5-14,67,60,47,40,37,31,78,44,27,30.21,30.16,6,3,17,0.00
2013-5-15,61,49,39,40,31,16,88,56,19,30.21,30.14,5,3,16,0.00
2013-5-16,43,38,38,40,22,-100,98,84,68,30.15,30.03,5,3,17,0.01
2013-5-17,49,41,32,35,27,-100,95,69,33,30.17,30.00,5,3,17,0.01
2013-5-18,55,42,29,35,30,25,92,65,36,30.25,30.15,6,3,17,0.00
2013-5-19,61,45,32,33,26,13,94,55,15,30.28,30.23,5,2,12,0.00
2013-5-20,67,52,39,35,25,13,68,38,13,30.27,30.18,5,3,14,0.00
2013-5-21,56,48,40,34,28,20,73,48,31,30.19,29.98,8,4,27,0.00
2013-5-22,47,38,28,33,18,1,90,50,16,29.98,29.89,5,3,13,0.00
2013-5-23,47,35,24,26,18,13,79,52,31,30.10,29.88,5,2,14,0.00
2013-5-24,56,41,27,27,18,1,82,44,15,30.09,30.04,6,3,16,0.00
2013-5-25,55,44,30,30,25,15,83,52,22,30.12,30.05,5,3,16,0.00
2013-5-26,52,42,33,36,29,23,90,61,39,30.21,30.09,6,3,19,0.00
2013-5-27,48,38,33,40,34,29,104,69,48,30.21,30.05,5,3,17,0.01
2013-5-28,52,43,37,41,38,35,104,50,54,30.08,29.99,5,3,14,0.02
2013-5-29,54,45,38,41,38,34,102,67,49,30.10,29.97,5,3,15,0.01
2013-5-30,59,45,30,38,32,14,101,64,18,30.21,30.08,5,2,13,0.01
2013-5-31,72,53,35,34,27,15,79,43,12,30.29,30.20,5,3,14,0.00
2013-6-1,69,52,43,28,25,21,53,37,20,30.29,30.23,5,3,9,0.00
2013-6-3,76,68,53,46,37,25,73,35,16,30.16,30.08,5,3,12,0.00
2013-6-4,76,62,47,45,36,30,74,43,19,30.24,30.14,5,2,13,0.00
2013-6-5,78,64,49,55,37,25,84,41,15,30.27,30.22,4,2,10,0.00
2013-6-6,78,63,48,51,41,29,74,50,17,30.27,30.23,5,2,14,0.00
2013-6-7,82,65,47,46,34,21,72,39,12,30.28,30.22,5,2,15,0.00
2013-6-8,85,75,54,48,41,34,61,31,16,30.24,30.18,5,3,11,0.00
2013-6-9,83,70,55,58,45,36,82,46,19,30.22,30.11,5,2,12,0.00
2013-6-10,65,56,48,52,43,33,89,64,32,30.14,30.04,5,2,12,0.00
2013-6-11,63,54,44,40,35,29,70,51,32,30.18,30.12,6,3,20,0.00
2013-6-12,63,54,44,42,35,20,68,50,20,30.16,30.12,6,4,22,0.00
2013-6-13,60,46,30,32,23,11,79,46,16,30.27,30.14,6,3,17,0.00
2013-6-14,66,51,38,40,28,21,70,43,20,30.26,30.11,5,3,13,0.00
2013-6-15,67,53,38,34,26,15,68,41,14,30.21,30.10,5,3,13,0.00
2013-6-16,66,52,35,35,30,21,72,47,25,30.31,30.21,5,3,18,0.00
2013-6-17,66,52,37,36,30,23,74,47,22,30.31,30.20,6,3,17,0.00
2013-6-18,57,48,38,33,29,22,80,49,27,30.19,30.02,7,3,20,0.00
2013-6-19,53,42,32,32,29,24,92,64,34,30.16,30.01,5,3,13,0.00
2013-6-20,57,40,30,30,25,20,83,59,28,30.15,30.09,6,2,15,0.00
2013-6-22,67,60,43,36,33,29,66,37,26,30.17,30.13,4,2,12,0.00
2013-6-23,59,49,40,42,37,27,82,64,32,30.13,29.97,6,3,16,0.00
2013-6-24,46,44,42,45,43,40,104,41,83,30.05,29.90,6,3,17,0.03
2013-6-25,51,47,43,51,47,43,104,15,94,30.20,30.04,6,4,20,0.04
2013-6-26,66,56,50,52,50,48,102,70,58,30.36,30.20,5,3,18,0.01
2013-6-27,76,63,47,52,47,37,104,54,29,30.47,30.36,4,3,10,0.00
2013-6-28,83,68,51,54,48,42,86,53,24,30.46,30.35,5,2,15,0.00
2013-6-29,81,68,49,50,43,33,83,48,20,30.37,30.28,4,3,10,0.00
2013-6-30,82,71,54,53,46,38,76,46,22,30.31,30.24,4,2,11,0.00
2013-7-1,85,71,56,53,45,31,72,45,15,30.37,30.26,5,2,12,0.00
2013-7-2,87,72,62,58,48,42,66,45,22,30.39,30.34,4,2,11,0.00
2013-7-3,86,71,62,60,50,40,68,49,20,30.39,30.24,4,2,12,0.00
2013-7-4,81,71,62,54,48,44,62,45,30,30.28,30.14,5,3,16,0.00
2013-7-5,76,67,53,49,39,30,82,43,20,30.15,30.05,5,3,17,0.00
2013-7-6,74,63,53,41,36,29,63,39,20,30.10,30.08,5,2,15,0.00
2013-7-7,74,66,48,42,36,31,66,36,22,30.17,30.12,5,3,13,0.00
2013-7-8,75,68,53,39,32,-100,51,30,22,30.35,30.28,5,3,13,0.00
2013-7-9,72,67,49,39,32,30,58,28,22,30.41,30.35,4,3,15,0.00
2013-7-10,76,68,45,42,35,28,65,33,19,30.39,30.26,5,3,18,0.00
2013-7-11,72,62,47,39,32,25,69,36,18,30.25,30.18,5,3,16,0.00
2013-7-12,70,63,42,37,31,24,61,32,19,30.22,30.19,5,3,15,0.00
2013-7-13,73,62,40,38,29,21,64,33,16,30.28,30.23,5,3,13,0.00
2013-7-15,74,70,54,41,38,33,56,31,23,30.19,30.13,4,2,10,0.00
2013-7-16,69,64,51,38,33,30,59,32,24,0.00,40.00,5,3,15,0.00
2013-7-17,75,62,43,43,31,19,68,38,13,0.00,40.00,5,3,12,0.00
2013-7-18,81,74,54,46,39,28,62,31,16,0.00,40.00,4,3,13,0.00
2013-7-19,83,75,50,50,41,34,65,32,19,0.00,40.00,4,2,9,0.00
2013-7-20,86,71,53,54,42,-100,67,40,18,0.00,40.00,5,2,13,0.00
2013-7-21,86,75,55,55,42,30,65,36,14,0.00,40.00,4,2,13,0.00
2013-7-22,79,73,62,49,44,40,46,37,26,0.00,40.00,4,2,11,0.00
2013-7-23,74,67,53,47,44,41,68,45,33,0.00,40.00,4,2,11,0.00
2013-7-24,76,69,58,51,47,44,75,47,34,0.00,40.00,4,2,13,0.00
2013-7-25,81,72,56,53,48,43,68,44,28,0.00,40.00,5,2,15,0.00
2013-7-26,76,69,56,51,48,45,70,48,35,0.00,40.00,5,3,14,0.00
2013-7-27,77,72,50,45,42,37,69,35,25,0.00,40.00,5,3,12,0.00
2013-7-28,75,69,50,45,38,33,80,34,23,0.00,40.00,5,3,14,0.00
2013-7-29,71,61,46,43,34,26,75,40,22,0.00,40.00,5,3,15,0.00
2013-7-30,72,59,43,38,33,27,64,39,22,0.00,40.00,5,3,15,0.00
2013-7-31,71,62,49,42,38,34,73,42,28,30.34,30.29,5,3,16,0.00
2013-8-1,65,57,42,36,25,17,64,33,16,30.24,30.23,6,3,17,0.00
2013-8-2,70,59,37,34,22,10,60,28,11,30.19,30.19,5,3,13,0.00
2013-8-3,71,60,41,36,31,23,60,37,16,0.00,40.00,4,3,12,0.00
2013-8-4,75,60,43,38,33,26,70,41,19,0.00,40.00,5,3,13,0.00
2013-8-5,76,58,44,40,33,17,69,44,13,0.00,40.00,4,2,11,0.00
2013-8-6,75,59,43,38,30,16,61,35,14,0.00,40.00,5,2,15,0.00
2013-8-7,67,59,45,37,35,32,66,41,28,0.00,40.00,5,3,15,0.00
2013-8-8,65,56,43,38,35,31,71,48,28,0.00,40.00,5,2,11,0.00
2013-8-9,66,55,41,39,34,27,74,47,25,0.00,40.00,5,3,17,0.00
2013-8-10,65,53,38,36,32,25,79,49,23,0.00,40.00,5,3,14,0.00
2013-8-11,69,53,37,39,30,22,72,47,19,0.00,40.00,5,2,12,0.00
2013-8-12,70,55,41,39,34,31,79,51,25,0.00,40.00,4,3,12,0.00
2013-8-13,74,57,41,35,28,-100,70,40,16,0.00,40.00,5,2,15,0.00
2013-8-14,76,60,43,34,24,-100,62,33,13,0.00,40.00,5,3,11,0.00
2013-8-15,75,48,45,34,11,-100,58,34,13,0.00,40.00,5,3,13,0.00
2013-8-16,74,58,43,32,18,-100,46,25,12,0.00,40.00,5,3,14,0.00
2013-8-17,77,60,46,37,29,-100,60,37,14,0.00,40.00,4,3,12,0.00
2013-8-18,55,53,52,38,37,37,56,54,52,0.00,40.00,4,3,5,0.00
2013-8-23,66,56,46,37,35,32,70,47,31,0.00,40.00,3,2,9,0.00
2013-8-24,66,54,41,40,35,28,81,53,25,0.00,40.00,5,3,17,0.00
2013-8-25,63,52,42,44,38,31,87,61,44,0.00,40.00,6,3,16,0.00
2013-8-26,66,57,44,44,40,34,88,55,31,0.00,40.00,5,3,19,0.00
2013-8-27,68,55,43,40,36,33,78,51,30,0.00,40.00,5,3,8,0.00
2013-8-28,69,63,49,48,43,41,72,51,37,0.00,40.00,5,3,17,0.00
2013-8-29,71,59,47,41,37,32,77,47,25,0.00,40.00,5,3,14,0.00
2013-8-30,76,64,46,39,34,27,70,37,17,0.00,40.00,5,3,12,0.00
2013-8-31,76,61,49,38,30,-100,61,36,20,0.00,40.00,5,3,11,0.00
2013-9-1,71,62,52,48,42,35,73,50,40,0.00,40.00,5,2,12,0.00
2013-9-2,65,59,55,53,51,47,88,76,63,0.00,40.00,5,2,14,0.00
2013-9-3,69,60,51,52,49,46,90,68,46,0.00,40.00,4,3,14,0.00
2013-9-4,71,62,50,48,46,43,77,56,40,0.00,40.00,5,3,15,0.00
2013-9-5,66,57,48,47,39,29,76,54,28,0.00,40.00,7,3,19,0.00
2013-9-6,73,63,41,37,34,29,65,36,22,0.00,40.00,5,3,11,0.00
2013-9-7,73,59,44,38,32,-100,70,41,21,0.00,40.00,5,3,12,0.00
2013-9-8,75,64,46,37,28,16,70,29,14,0.00,40.00,5,3,12,0.00
2013-9-9,77,65,49,35,31,28,48,30,17,0.00,40.00,3,2,9,0.00
2013-9-10,77,62,50,41,29,23,52,30,14,0.00,40.00,4,2,11,0.00
2013-9-11,74,66,47,43,37,33,72,36,26,0.00,40.00,5,2,12,0.00
2013-9-12,72,61,48,53,44,36,84,31,30,0.00,40.00,4,2,12,0.01
2013-9-13,69,55,46,55,48,43,76,17,42,0.00,40.00,3,2,8,0.01
2013-9-14,72,57,45,52,46,43,78,26,40,0.00,40.00,4,2,14,0.01
2013-9-15,69,63,47,37,34,29,55,34,27,0.00,40.00,5,4,17,0.00
2013-9-16,68,60,49,43,38,33,79,47,29,0.00,40.00,5,3,14,0.00
2013-9-17,59,51,36,42,34,19,83,55,21,0.00,40.00,7,4,20,0.00
2013-9-18,50,43,36,35,30,25,90,65,39,0.00,40.00,2,1,7,0.00
2013-9-19,71,55,41,29,24,13,58,35,11,0.00,40.00,4,2,11,0.00
2013-9-20,63,55,42,37,29,22,77,39,24,0.00,40.00,6,4,19,0.00
2013-9-21,44,40,32,42,38,32,100,50,78,0.00,40.00,5,3,16,0.07
2013-9-22,50,40,31,40,35,31,104,54,55,0.00,40.00,4,1,10,0.02
2013-9-23,63,47,31,40,31,20,89,27,20,0.00,40.00,4,2,10,0.00
2013-9-24,56,47,39,40,36,32,88,68,44,0.00,40.00,5,3,17,0.00
2013-9-25,44,36,29,34,29,23,94,76,44,0.00,40.00,5,3,13,0.22
2013-9-26,43,34,28,27,24,19,89,68,39,0.00,40.00,5,3,13,0.00
2013-9-27,56,40,29,31,25,18,84,59,25,0.00,40.00,3,2,9,0.00
2013-9-28,59,45,32,33,28,-100,81,54,33,0.00,40.00,5,3,14,0.00
2013-9-29,54,47,43,39,30,21,83,53,40,0.00,40.00,7,4,30,0.00
2013-9-30,51,45,40,43,39,37,94,80,66,0.00,40.00,5,3,14,0.00
2013-10-1,55,45,36,37,34,27,84,67,34,0.00,40.00,4,2,9,0.00
2013-10-2,54,41,32,37,27,18,91,61,25,0.00,40.00,5,3,16,0.00
2013-10-3,45,36,27,27,20,12,88,56,26,0.00,40.00,6,3,17,0.00
2013-10-4,52,38,30,20,15,8,64,43,21,0.00,40.00,9,6,21,0.00
2013-10-5,67,47,31,23,16,8,50,31,12,0.00,40.00,4,2,11,0.00
2013-10-6,65,50,34,21,16,7,56,30,10,0.00,40.00,5,3,10,0.00
2013-10-7,60,47,33,21,17,9,50,32,14,0.00,40.00,5,3,16,0.00
2013-10-8,55,41,29,24,20,14,66,45,20,0.00,40.00,4,3,12,0.00
2013-10-9,41,36,32,30,26,22,91,68,55,0.00,40.00,5,3,17,0.00
2013-10-10,51,38,29,33,29,26,93,73,39,0.00,40.00,4,2,12,0.00
2013-10-11,53,41,27,34,28,22,93,64,31,0.00,40.00,4,2,12,0.00
2013-10-12,49,38,28,30,28,23,93,70,36,0.00,40.00,5,3,19,0.00
2013-10-13,48,36,31,31,29,26,97,78,42,0.00,40.00,4,2,13,0.00
2013-10-14,56,42,30,29,25,20,88,55,25,0.00,40.00,4,2,11,0.00
2013-10-15,50,39,30,23,19,11,70,47,26,0.00,40.00,5,2,17,0.00
2013-10-16,57,44,28,27,22,11,70,44,24,0.00,40.00,4,2,11,0.00
2013-10-17,62,44,29,25,17,10,72,39,14,0.00,40.00,4,2,9,0.00
2013-10-18,65,47,38,27,20,14,58,36,16,0.00,40.00,3,2,11,0.00
2013-10-19,64,46,32,28,22,14,72,45,14,0.00,40.00,4,3,11,0.00
2013-10-20,67,48,34,25,19,14,62,36,13,0.00,40.00,4,3,9,0.00
2013-10-21,66,52,40,26,19,15,46,29,15,30.28,30.20,4,3,8,0.00
2013-10-22,65,46,34,21,16,11,50,33,12,30.29,30.21,4,3,9,0.00
2013-10-23,64,47,35,24,20,16,52,36,15,30.23,30.14,4,3,7,0.00
2013-10-24,62,43,34,24,18,13,52,39,15,30.30,30.19,4,2,12,0.00
2013-10-25,62,42,31,20,14,10,46,35,13,30.37,30.30,4,2,9,0.00
2013-10-26,64,50,36,20,12,-100,46,26,12,30.38,30.30,5,2,9,0.00
2013-10-27,55,41,29,28,19,15,95,45,21,30.29,29.59,7,4,21,0.00
2013-10-28,30,27,26,29,24,-100,102,47,88,29.80,29.53,4,2,12,0.05
2013-10-29,31,30,27,31,29,26,104,44,93,30.04,29.81,4,2,13,0.01
2013-10-30,45,30,19,35,26,17,94,77,55,30.20,30.04,3,2,10,0.01
2013-10-31,53,39,31,30,26,20,87,61,39,30.31,30.19,4,3,11,0.00
2013-11-1,60,42,29,30,26,20,88,61,23,30.34,30.24,5,2,8,0.00
2013-11-2,52,42,31,34,24,-100,88,54,33,30.24,30.01,5,3,15,0.00
2013-11-3,45,35,29,35,25,14,101,68,45,30.04,29.95,4,2,10,0.00
2013-11-4,39,30,24,16,14,11,67,52,31,30.12,29.91,5,3,16,0.00
2013-11-5,52,36,27,26,16,10,71,46,26,30.32,30.11,4,2,12,0.00
2013-11-6,58,43,30,32,27,24,80,57,29,30.41,30.35,4,2,7,0.00
2013-11-7,54,43,34,26,18,11,67,40,20,30.38,30.23,5,3,16,0.00
2013-11-8,52,41,32,30,26,18,76,56,39,30.24,30.13,5,2,12,0.00
2013-11-9,56,42,29,27,25,21,84,55,25,30.25,30.16,4,3,12,0.00
2013-11-10,58,51,34,23,15,8,56,27,15,30.31,30.24,5,3,10,0.00
2013-11-11,58,50,31,24,16,10,55,28,15,30.39,30.30,4,2,13,0.00
2013-11-12,54,46,39,30,22,12,60,40,26,30.47,30.38,4,2,8,0.00
2013-11-13,58,45,32,35,29,26,91,56,30,30.44,30.31,3,2,8,0.00
2013-11-14,53,42,29,29,26,22,81,55,31,30.31,29.91,5,3,13,0.00
2013-11-15,43,34,29,29,25,22,89,71,45,29.92,29.80,4,2,9,0.00
2013-11-16,41,33,28,27,24,18,90,68,48,29.96,29.77,5,2,15,0.00
2013-11-17,50,37,25,30,25,21,90,67,35,30.14,29.97,4,3,9,0.00
2013-11-18,45,37,28,33,30,19,93,78,59,30.17,30.09,5,3,15,0.00
2013-11-19,35,33,31,35,33,31,95,12,92,30.10,30.00,4,2,17,0.02
2013-11-20,35,33,32,35,33,32,102,3,100,29.99,29.88,3,1,7,0.04
2013-11-21,32,24,20,32,20,12,99,81,70,30.13,29.89,7,4,22,0.01
2013-11-22,33,25,19,11,5,0,69,44,27,30.18,30.05,8,6,23,0.00
2013-11-23,41,31,27,8,1,-100,37,30,21,30.14,30.03,8,5,21,0.00
2013-11-24,46,33,25,14,10,7,53,39,24,30.29,30.14,3,2,10,0.00
2013-11-25,56,38,26,23,17,8,69,45,19,30.37,30.30,4,2,7,0.00
2013-11-26,54,37,27,24,19,12,79,54,20,30.37,30.22,4,2,7,0.00
2013-11-27,49,36,27,26,22,18,80,60,31,30.20,30.01,4,2,7,0.00
2013-11-28,46,33,28,28,25,24,88,73,45,30.16,30.02,3,2,7,0.00
2013-11-29,48,39,26,28,24,20,92,60,33,30.32,30.22,3,2,9,0.00
2013-11-30,51,38,25,24,17,-100,79,49,24,30.37,30.28,3,2,8,0.00
2013-12-1,58,38,26,30,22,15,82,58,20,30.45,30.37,4,2,8,0.00
2013-12-2,47,39,30,32,22,15,92,48,30,30.33,29.93,6,4,17,0.00
2013-12-3,33,23,11,33,21,7,102,48,81,29.91,29.69,5,4,18,0.02
2013-12-4,28,15,9,14,9,5,90,80,53,29.88,29.73,4,2,14,0.01
2013-12-5,25,12,1,11,5,-3,90,74,39,29.94,29.86,3,1,8,0.00
2013-12-6,22,15,8,18,10,5,94,79,55,29.95,29.63,5,2,16,0.03
2013-12-7,19,12,5,18,8,-100,94,89,88,29.96,29.61,6,3,17,0.06
2013-12-8,19,6,-6,17,2,-10,91,84,63,30.11,29.95,6,2,17,0.01
2013-12-9,35,15,7,18,5,-3,88,66,31,30.35,30.09,6,4,19,0.00
2013-12-10,43,26,13,21,14,10,89,66,27,30.35,30.22,4,2,9,0.00
2013-12-11,45,28,20,24,16,13,82,64,28,30.29,30.22,4,2,9,0.00
2013-12-12,46,29,16,14,10,5,79,51,18,30.30,30.21,5,3,11,0.00
2013-12-13,43,29,15,23,15,7,69,56,35,30.39,30.22,5,3,10,0.00
2013-12-14,52,31,22,20,12,-100,78,54,16,30.50,30.40,4,3,9,0.00
2013-12-15,62,37,27,23,17,8,66,48,12,30.50,30.42,4,3,5,0.00
2013-12-16,61,43,30,21,16,13,61,39,15,30.47,30.39,6,3,8,0.00
2013-12-17,56,38,30,22,19,17,67,50,21,30.45,30.26,5,3,14,0.00
2013-12-18,54,36,29,24,20,17,71,54,25,30.27,29.76,5,3,8,0.00
2013-12-19,31,24,16,25,18,11,87,77,63,29.90,29.66,6,3,16,0.00
2013-12-20,38,26,13,30,11,-9,82,59,16,30.02,29.88,5,2,15,0.00
2013-12-21,46,34,27,30,22,-100,91,68,30,30.15,30.01,4,2,15,0.00
2013-12-22,47,36,29,29,24,18,78,63,47,30.41,30.16,4,3,15,0.00
2013-12-23,54,36,27,26,20,7,83,59,15,30.49,30.40,4,2,8,0.00
2013-12-24,50,36,27,26,21,16,81,59,26,30.47,30.41,4,3,12,0.00
2013-12-25,54,38,27,25,14,0,82,43,14,30.48,30.40,4,2,10,0.00
2013-12-26,59,40,26,16,9,2,53,33,10,30.45,30.39,4,3,7,0.00
2013-12-27,35,29,26,13,10,8,50,44,35,30.42,30.28,5,3,5,0.00
2013-12-28,43,29,22,12,8,5,63,44,24,30.22,30.19,5,4,13,0.00
2013-12-29,41,41,41,17,17,17,38,38,38,30.27,30.27,2,2,6,0.00
2013-12-30,52,45,35,13,10,7,39,25,16,30.36,30.30,3,2,9,0.00
2013-12-31,52,40,30,17,9,1,57,34,12,30.33,30.27,4,3,7,0.00
2014-1-1,34,30,28,23,18,14,77,59,48,30.33,30.30,4,2,6,0.00
2014-1-2,29,28,28,24,24,23,81,81,81,30.31,30.31,5,5,6,0.00